createdAt,value
2016-11-16T00:00:32.019Z,50.51
2016-11-16T00:01:04.352Z,50.13
2016-11-16T00:01:36.689Z,50.13
2016-11-16T00:02:09.000Z,50.13
2016-11-16T00:02:41.322Z,50.32
2016-11-16T00:03:13.667Z,50.32
2016-11-16T00:03:45.995Z,50.03
2016-11-16T00:04:18.328Z,50.03
2016-11-16T00:04:50.653Z,50.51
2016-11-16T00:05:22.962Z,50.42
2016-11-16T00:05:55.293Z,50.32
2016-11-16T00:06:27.620Z,50.03
2016-11-16T00:06:59.939Z,50.51
2016-11-16T00:07:32.257Z,50.51
2016-11-16T00:08:04.588Z,50.03
2016-11-16T00:08:36.895Z,50.7
2016-11-16T00:09:09.195Z,50.51
2016-11-16T00:09:41.504Z,50.61
2016-11-16T00:10:13.813Z,50.51
2016-11-16T00:10:46.124Z,50.51
2016-11-16T00:11:18.442Z,50.32
2016-11-16T00:11:50.777Z,49.93
2016-11-16T00:12:23.107Z,50.7
2016-11-16T00:12:55.481Z,50.61
2016-11-16T00:13:27.799Z,50.61
2016-11-16T00:14:00.121Z,50.61
2016-11-16T00:14:32.444Z,49.65
2016-11-16T00:15:04.781Z,50.51
2016-11-16T00:15:37.110Z,50.7
2016-11-16T00:16:09.447Z,50.7
2016-11-16T00:16:41.784Z,49.65
2016-11-16T00:17:14.101Z,50.61
2016-11-16T00:17:46.420Z,50.42
2016-11-16T00:18:18.750Z,49.74
2016-11-16T00:18:51.078Z,50.61
2016-11-16T00:19:23.391Z,50.51
2016-11-16T00:19:55.725Z,50.61
2016-11-16T00:20:28.038Z,50.51
2016-11-16T00:21:00.348Z,50.61
2016-11-16T00:21:32.661Z,50.61
2016-11-16T00:22:04.994Z,50.51
2016-11-16T00:22:37.325Z,50.51
2016-11-16T00:23:09.703Z,50.51
2016-11-16T00:23:42.033Z,50.61
2016-11-16T00:24:14.363Z,50.42
2016-11-16T00:24:46.694Z,50.8
2016-11-16T00:25:19.018Z,50.42
2016-11-16T00:25:51.365Z,50.51
2016-11-16T00:26:23.726Z,50.51
2016-11-16T00:26:56.087Z,50.7
2016-11-16T00:27:28.428Z,50.61
2016-11-16T00:28:00.756Z,50.9
2016-11-16T00:28:33.085Z,50.61
2016-11-16T00:29:05.408Z,50.51
2016-11-16T00:29:37.731Z,50.9
2016-11-16T00:30:10.072Z,50.42
2016-11-16T00:30:42.428Z,50.51
2016-11-16T00:31:14.767Z,50.42
2016-11-16T00:31:47.087Z,50.8
2016-11-16T00:32:19.402Z,50.7
2016-11-16T00:32:51.709Z,50.8
2016-11-16T00:33:24.017Z,50.8
2016-11-16T00:33:56.330Z,50.9
2016-11-16T00:34:28.656Z,50.42
2016-11-16T00:35:00.985Z,50.99
2016-11-16T00:35:33.326Z,51.09
2016-11-16T00:36:05.651Z,50.23
2016-11-16T00:36:37.970Z,50.32
2016-11-16T00:37:10.284Z,50.99
2016-11-16T00:37:42.602Z,51.09
2016-11-16T00:38:14.916Z,50.51
2016-11-16T00:38:47.229Z,50.23
2016-11-16T00:39:19.578Z,50.99
2016-11-16T00:39:51.910Z,50.42
2016-11-16T00:40:24.240Z,50.96
2016-11-16T00:40:56.557Z,50.99
2016-11-16T00:41:28.906Z,51.09
2016-11-16T00:42:01.253Z,51.06
2016-11-16T00:42:33.569Z,50.23
2016-11-16T00:43:05.897Z,50.32
2016-11-16T00:43:38.254Z,50.99
2016-11-16T00:44:10.578Z,51.09
2016-11-16T00:44:42.889Z,50.32
2016-11-16T00:45:15.238Z,50.32
2016-11-16T00:45:47.582Z,50.42
2016-11-16T00:46:19.898Z,50.99
2016-11-16T00:46:53.091Z,50.42
2016-11-16T00:47:25.423Z,50.23
2016-11-16T00:47:57.749Z,50.32
2016-11-16T00:48:30.068Z,50.32
2016-11-16T00:49:02.379Z,50.23
2016-11-16T00:49:34.724Z,50.99
2016-11-16T00:50:07.050Z,50.99
2016-11-16T00:50:39.371Z,50.99
2016-11-16T00:51:11.697Z,50.23
2016-11-16T00:51:44.022Z,50.32
2016-11-16T00:52:16.339Z,50.32
2016-11-16T00:52:48.673Z,50.23
2016-11-16T00:53:20.995Z,50.32
2016-11-16T00:53:53.327Z,50.23
2016-11-16T00:54:25.640Z,50.32
2016-11-16T00:54:57.966Z,50.32
2016-11-16T00:55:30.332Z,50.9
2016-11-16T00:56:02.652Z,50.32
2016-11-16T00:56:34.983Z,50.23
2016-11-16T00:57:07.339Z,50.32
2016-11-16T00:57:39.693Z,50.32
2016-11-16T00:58:12.025Z,50.32
2016-11-16T00:58:44.336Z,50.32
2016-11-16T00:59:16.654Z,50.8
2016-11-16T00:59:48.985Z,50.32
2016-11-16T01:00:21.339Z,50.32
2016-11-16T01:00:53.680Z,50.23
2016-11-16T01:01:26.000Z,50.8
2016-11-16T01:01:58.334Z,50.32
2016-11-16T01:02:30.662Z,50.99
2016-11-16T01:03:02.984Z,50.32
2016-11-16T01:03:35.308Z,50.8
2016-11-16T01:04:07.622Z,50.32
2016-11-16T01:04:39.953Z,50.32
2016-11-16T01:05:12.264Z,50.9
2016-11-16T01:05:44.572Z,50.23
2016-11-16T01:06:16.880Z,50.32
2016-11-16T01:06:49.200Z,50.32
2016-11-16T01:07:21.512Z,50.9
2016-11-16T01:07:53.829Z,50.8
2016-11-16T01:08:26.138Z,50.8
2016-11-16T01:08:58.470Z,50.32
2016-11-16T01:09:30.801Z,50.8
2016-11-16T01:10:03.106Z,50.9
2016-11-16T01:10:35.398Z,50.78
2016-11-16T01:11:07.715Z,50.7
2016-11-16T01:11:40.003Z,50.8
2016-11-16T01:12:12.339Z,50.7
2016-11-16T01:12:44.635Z,50.32
2016-11-16T01:13:16.948Z,50.42
2016-11-16T01:13:49.253Z,50.42
2016-11-16T01:14:21.570Z,50.8
2016-11-16T01:14:53.887Z,50.68
2016-11-16T01:15:26.182Z,50.42
2016-11-16T01:15:58.498Z,50.7
2016-11-16T01:16:30.804Z,50.8
2016-11-16T01:17:03.101Z,50.7
2016-11-16T01:17:35.437Z,50.8
2016-11-16T01:18:07.756Z,50.7
2016-11-16T01:18:40.066Z,50.61
2016-11-16T01:19:12.402Z,50.7
2016-11-16T01:19:44.721Z,50.68
2016-11-16T01:20:17.030Z,50.8
2016-11-16T01:20:49.364Z,50.61
2016-11-16T01:21:21.693Z,50.42
2016-11-16T01:21:54.017Z,50.8
2016-11-16T01:22:26.337Z,50.7
2016-11-16T01:22:58.663Z,50.7
2016-11-16T01:23:30.989Z,50.61
2016-11-16T01:24:03.311Z,50.68
2016-11-16T01:24:35.638Z,50.8
2016-11-16T01:25:07.971Z,50.61
2016-11-16T01:25:40.277Z,50.78
2016-11-16T01:26:12.589Z,50.51
2016-11-16T01:26:44.903Z,50.8
2016-11-16T01:27:17.195Z,50.61
2016-11-16T01:27:49.510Z,50.7
2016-11-16T01:28:21.801Z,50.51
2016-11-16T01:28:54.128Z,50.51
2016-11-16T01:29:26.413Z,50.51
2016-11-16T01:29:58.722Z,50.51
2016-11-16T01:30:31.031Z,50.8
2016-11-16T01:31:03.385Z,50.61
2016-11-16T01:31:35.709Z,50.61
2016-11-16T01:32:08.039Z,50.78
2016-11-16T01:32:40.356Z,50.8
2016-11-16T01:33:12.644Z,50.9
2016-11-16T01:33:44.946Z,50.9
2016-11-16T01:34:17.262Z,50.7
2016-11-16T01:34:49.574Z,50.7
2016-11-16T01:35:21.867Z,50.9
2016-11-16T01:35:54.173Z,50.8
2016-11-16T01:36:26.480Z,50.7
2016-11-16T01:36:58.804Z,51.09
2016-11-16T01:37:31.119Z,51.18
2016-11-16T01:38:03.437Z,50.61
2016-11-16T01:38:35.755Z,50.9
2016-11-16T01:39:08.056Z,50.8
2016-11-16T01:39:40.380Z,51.18
2016-11-16T01:40:12.698Z,50.8
2016-11-16T01:40:44.992Z,50.9
2016-11-16T01:41:17.292Z,50.9
2016-11-16T01:41:49.593Z,50.78
2016-11-16T01:42:21.922Z,51.09
2016-11-16T01:42:54.222Z,50.8
2016-11-16T01:43:26.535Z,51.09
2016-11-16T01:43:58.845Z,51.18
2016-11-16T01:44:31.145Z,50.9
2016-11-16T01:45:03.442Z,50.8
2016-11-16T01:45:35.761Z,51.18
2016-11-16T01:46:08.077Z,50.61
2016-11-16T01:46:40.379Z,51.18
2016-11-16T01:47:12.672Z,51.18
2016-11-16T01:47:44.982Z,50.9
2016-11-16T01:48:17.287Z,50.8
2016-11-16T01:48:49.601Z,50.8
2016-11-16T01:49:21.901Z,51.18
2016-11-16T01:49:54.195Z,50.8
2016-11-16T01:50:26.501Z,50.8
2016-11-16T01:50:58.840Z,50.8
2016-11-16T01:51:31.166Z,50.87
2016-11-16T01:52:03.463Z,50.99
2016-11-16T01:52:35.763Z,50.8
2016-11-16T01:53:08.077Z,50.8
2016-11-16T01:53:40.387Z,50.9
2016-11-16T01:54:12.689Z,50.9
2016-11-16T01:54:44.992Z,50.9
2016-11-16T01:55:17.322Z,50.7
2016-11-16T01:55:49.641Z,50.8
2016-11-16T01:56:21.970Z,50.61
2016-11-16T01:56:54.287Z,50.8
2016-11-16T01:57:26.602Z,50.8
2016-11-16T01:57:58.956Z,50.8
2016-11-16T01:58:31.313Z,51.28
2016-11-16T01:59:03.635Z,51.09
2016-11-16T01:59:35.928Z,50.7
2016-11-16T02:00:08.259Z,50.7
2016-11-16T02:00:40.588Z,50.9
2016-11-16T02:01:12.994Z,50.61
2016-11-16T02:01:45.318Z,50.8
2016-11-16T02:02:17.630Z,51.09
2016-11-16T02:02:49.939Z,50.8
2016-11-16T02:03:22.265Z,50.7
2016-11-16T02:03:54.596Z,51.09
2016-11-16T02:04:26.917Z,50.7
2016-11-16T02:04:59.238Z,51.16
2016-11-16T02:05:31.538Z,50.99
2016-11-16T02:06:03.837Z,50.99
2016-11-16T02:06:36.149Z,51.28
2016-11-16T02:07:08.467Z,51.09
2016-11-16T02:07:40.791Z,51.09
2016-11-16T02:08:13.101Z,51.09
2016-11-16T02:08:45.415Z,51.09
2016-11-16T02:09:17.722Z,51.09
2016-11-16T02:09:50.043Z,51.09
2016-11-16T02:10:22.367Z,51.09
2016-11-16T02:10:54.684Z,51.09
2016-11-16T02:11:27.004Z,51.09
2016-11-16T02:11:59.333Z,51.09
2016-11-16T02:12:31.649Z,51.09
2016-11-16T02:13:03.965Z,51.09
2016-11-16T02:13:36.280Z,51.18
2016-11-16T02:14:08.632Z,50.99
2016-11-16T02:14:40.966Z,50.99
2016-11-16T02:15:13.304Z,50.99
2016-11-16T02:15:45.626Z,50.99
2016-11-16T02:16:17.965Z,51.06
2016-11-16T02:16:50.289Z,51.18
2016-11-16T02:17:22.602Z,51.28
2016-11-16T02:17:54.915Z,51.09
2016-11-16T02:18:27.245Z,51.28
2016-11-16T02:18:59.572Z,51.18
2016-11-16T02:19:31.901Z,51.28
2016-11-16T02:20:04.237Z,51.09
2016-11-16T02:20:36.550Z,51.28
2016-11-16T02:21:08.848Z,51.09
2016-11-16T02:21:41.166Z,51.06
2016-11-16T02:22:13.497Z,51.18
2016-11-16T02:22:45.837Z,51.28
2016-11-16T02:23:18.149Z,51.28
2016-11-16T02:23:50.466Z,51.09
2016-11-16T02:24:22.784Z,50.99
2016-11-16T02:24:55.091Z,51.09
2016-11-16T02:25:27.421Z,51.18
2016-11-16T02:25:59.728Z,51.16
2016-11-16T02:26:32.041Z,51.06
2016-11-16T02:27:04.358Z,50.96
2016-11-16T02:27:36.672Z,50.96
2016-11-16T02:28:08.994Z,51.06
2016-11-16T02:28:41.313Z,50.96
2016-11-16T02:29:13.632Z,50.87
2016-11-16T02:29:45.963Z,51.06
2016-11-16T02:30:18.294Z,51.09
2016-11-16T02:30:50.611Z,50.87
2016-11-16T02:31:22.929Z,51.06
2016-11-16T02:31:55.255Z,50.7
2016-11-16T02:32:27.581Z,51.25
2016-11-16T02:32:59.898Z,50.96
2016-11-16T02:33:32.211Z,51.06
2016-11-16T02:34:04.546Z,51.06
2016-11-16T02:34:36.866Z,50.87
2016-11-16T02:35:09.183Z,50.87
2016-11-16T02:35:41.511Z,50.87
2016-11-16T02:36:13.859Z,50.78
2016-11-16T02:36:46.209Z,50.96
2016-11-16T02:37:18.508Z,50.99
2016-11-16T02:37:50.823Z,50.99
2016-11-16T02:38:23.141Z,51.06
2016-11-16T02:38:55.457Z,50.96
2016-11-16T02:39:27.774Z,50.68
2016-11-16T02:40:00.090Z,50.99
2016-11-16T02:40:32.426Z,50.96
2016-11-16T02:41:04.754Z,51.25
2016-11-16T02:41:37.069Z,50.87
2016-11-16T02:42:09.382Z,51.25
2016-11-16T02:42:41.683Z,51.35
2016-11-16T02:43:14.016Z,51.16
2016-11-16T02:43:46.323Z,51.25
2016-11-16T02:44:18.636Z,51.25
2016-11-16T02:44:50.965Z,51.06
2016-11-16T02:45:23.274Z,51.16
2016-11-16T02:45:55.593Z,51.35
2016-11-16T02:46:27.923Z,50.87
2016-11-16T02:47:00.247Z,51.25
2016-11-16T02:47:32.591Z,50.96
2016-11-16T02:48:04.913Z,51.25
2016-11-16T02:48:37.246Z,51.16
2016-11-16T02:49:09.548Z,50.87
2016-11-16T02:49:41.884Z,51.45
2016-11-16T02:50:14.230Z,51.25
2016-11-16T02:50:46.594Z,51.16
2016-11-16T02:51:18.929Z,50.96
2016-11-16T02:51:51.311Z,50.87
2016-11-16T02:52:23.623Z,50.87
2016-11-16T02:52:55.941Z,50.96
2016-11-16T02:53:28.267Z,51.16
2016-11-16T02:54:00.563Z,50.78
2016-11-16T02:54:32.897Z,50.87
2016-11-16T02:55:05.217Z,50.96
2016-11-16T02:55:37.542Z,50.78
2016-11-16T02:56:09.887Z,50.96
2016-11-16T02:56:42.227Z,51.35
2016-11-16T02:57:14.553Z,50.78
2016-11-16T02:57:46.871Z,50.87
2016-11-16T02:58:19.174Z,51.45
2016-11-16T02:58:51.490Z,50.96
2016-11-16T02:59:23.789Z,50.87
2016-11-16T02:59:56.122Z,50.96
2016-11-16T03:00:28.451Z,51.35
2016-11-16T03:01:00.763Z,50.96
2016-11-16T03:01:33.074Z,50.96
2016-11-16T03:02:05.411Z,50.96
2016-11-16T03:02:37.722Z,51.35
2016-11-16T03:03:10.036Z,50.78
2016-11-16T03:03:42.385Z,51.45
2016-11-16T03:04:14.706Z,51.45
2016-11-16T03:04:47.032Z,50.87
2016-11-16T03:05:19.343Z,50.78
2016-11-16T03:05:51.660Z,51.45
2016-11-16T03:06:23.968Z,50.96
2016-11-16T03:06:56.288Z,51.45
2016-11-16T03:07:28.604Z,51.35
2016-11-16T03:08:00.917Z,50.96
2016-11-16T03:08:33.271Z,50.96
2016-11-16T03:09:05.595Z,50.87
2016-11-16T03:09:37.895Z,50.96
2016-11-16T03:10:10.230Z,50.96
2016-11-16T03:10:42.559Z,51.25
2016-11-16T03:11:14.865Z,50.96
2016-11-16T03:11:47.172Z,50.96
2016-11-16T03:12:19.521Z,51.16
2016-11-16T03:12:51.845Z,51.35
2016-11-16T03:13:24.156Z,51.16
2016-11-16T03:13:56.501Z,51.16
2016-11-16T03:14:28.818Z,51.35
2016-11-16T03:15:01.144Z,51.35
2016-11-16T03:15:33.462Z,51.25
2016-11-16T03:16:05.779Z,51.45
2016-11-16T03:16:38.115Z,51.35
2016-11-16T03:17:10.421Z,51.45
2016-11-16T03:17:42.749Z,51.54
2016-11-16T03:18:15.082Z,51.54
2016-11-16T03:18:47.407Z,51.54
2016-11-16T03:19:19.728Z,51.54
2016-11-16T03:19:52.071Z,51.25
2016-11-16T03:20:24.378Z,51.16
2016-11-16T03:20:56.703Z,51.54
2016-11-16T03:21:29.019Z,51.45
2016-11-16T03:22:01.342Z,51.16
2016-11-16T03:22:33.669Z,51.06
2016-11-16T03:23:05.986Z,51.16
2016-11-16T03:23:38.307Z,51.06
2016-11-16T03:24:10.647Z,51.54
2016-11-16T03:24:42.996Z,51.06
2016-11-16T03:25:15.319Z,51.45
2016-11-16T03:25:47.628Z,51.16
2016-11-16T03:26:19.955Z,51.35
2016-11-16T03:26:52.293Z,51.06
2016-11-16T03:27:24.646Z,51.45
2016-11-16T03:27:56.961Z,51.16
2016-11-16T03:28:29.293Z,51.54
2016-11-16T03:29:01.618Z,51.16
2016-11-16T03:29:33.953Z,51.25
2016-11-16T03:30:06.284Z,51.16
2016-11-16T03:30:38.625Z,51.16
2016-11-16T03:31:10.939Z,51.16
2016-11-16T03:31:43.251Z,51.45
2016-11-16T03:32:15.588Z,51.16
2016-11-16T03:32:47.891Z,51.16
2016-11-16T03:33:20.209Z,51.45
2016-11-16T03:33:52.510Z,51.16
2016-11-16T03:34:24.840Z,51.45
2016-11-16T03:34:57.165Z,51.54
2016-11-16T03:35:29.499Z,51.35
2016-11-16T03:36:01.809Z,51.54
2016-11-16T03:36:34.140Z,51.64
2016-11-16T03:37:06.458Z,51.54
2016-11-16T03:37:38.782Z,51.54
2016-11-16T03:38:11.117Z,51.16
2016-11-16T03:38:43.436Z,51.64
2016-11-16T03:39:15.759Z,51.16
2016-11-16T03:39:48.103Z,51.16
2016-11-16T03:40:20.417Z,51.06
2016-11-16T03:40:52.729Z,51.64
2016-11-16T03:41:25.028Z,51.06
2016-11-16T03:41:57.348Z,51.06
2016-11-16T03:42:29.664Z,51.16
2016-11-16T03:43:02.029Z,51.16
2016-11-16T03:43:34.353Z,51.16
2016-11-16T03:44:06.668Z,51.16
2016-11-16T03:44:38.975Z,51.16
2016-11-16T03:45:11.307Z,51.54
2016-11-16T03:45:43.620Z,51.06
2016-11-16T03:46:15.925Z,51.45
2016-11-16T03:46:48.262Z,51.25
2016-11-16T03:47:20.566Z,51.16
2016-11-16T03:47:52.860Z,51.16
2016-11-16T03:48:25.177Z,50.96
2016-11-16T03:48:57.497Z,51.64
2016-11-16T03:49:29.827Z,51.06
2016-11-16T03:50:02.135Z,51.25
2016-11-16T03:50:34.474Z,51.16
2016-11-16T03:51:06.786Z,51.16
2016-11-16T03:51:39.092Z,51.25
2016-11-16T03:52:11.400Z,50.96
2016-11-16T03:52:43.726Z,51.73
2016-11-16T03:53:16.035Z,51.16
2016-11-16T03:53:48.361Z,51.64
2016-11-16T03:54:20.715Z,51.54
2016-11-16T03:54:53.028Z,51.64
2016-11-16T03:55:25.364Z,51.35
2016-11-16T03:55:58.556Z,51.73
2016-11-16T03:56:30.894Z,51.64
2016-11-16T03:57:03.225Z,51.06
2016-11-16T03:57:35.528Z,51.06
2016-11-16T03:58:07.843Z,51.64
2016-11-16T03:58:40.182Z,51.35
2016-11-16T03:59:12.515Z,51.35
2016-11-16T03:59:44.839Z,51.45
2016-11-16T04:00:17.158Z,51.45
2016-11-16T04:00:49.487Z,51.25
2016-11-16T04:01:21.808Z,51.93
2016-11-16T04:01:54.151Z,51.73
2016-11-16T04:02:26.502Z,51.25
2016-11-16T04:02:58.810Z,51.25
2016-11-16T04:03:31.120Z,51.35
2016-11-16T04:04:03.426Z,51.16
2016-11-16T04:04:35.721Z,51.45
2016-11-16T04:05:08.039Z,51.54
2016-11-16T04:05:40.368Z,51.83
2016-11-16T04:06:12.665Z,51.83
2016-11-16T04:06:44.987Z,51.83
2016-11-16T04:07:17.307Z,51.54
2016-11-16T04:07:49.633Z,51.73
2016-11-16T04:08:21.937Z,51.64
2016-11-16T04:08:54.255Z,51.83
2016-11-16T04:09:26.577Z,51.35
2016-11-16T04:09:58.924Z,51.35
2016-11-16T04:10:31.248Z,51.25
2016-11-16T04:11:03.575Z,51.35
2016-11-16T04:11:35.897Z,51.83
2016-11-16T04:12:08.249Z,51.93
2016-11-16T04:12:40.572Z,51.35
2016-11-16T04:13:12.900Z,51.35
2016-11-16T04:13:45.224Z,51.83
2016-11-16T04:14:17.542Z,51.83
2016-11-16T04:14:49.861Z,51.25
2016-11-16T04:15:22.197Z,51.35
2016-11-16T04:15:54.528Z,51.35
2016-11-16T04:16:26.895Z,51.73
2016-11-16T04:16:59.222Z,52.12
2016-11-16T04:17:31.542Z,52.12
2016-11-16T04:18:03.865Z,51.35
2016-11-16T04:18:36.215Z,52.12
2016-11-16T04:19:08.538Z,52.22
2016-11-16T04:19:40.863Z,51.35
2016-11-16T04:20:13.198Z,51.83
2016-11-16T04:20:45.525Z,52.22
2016-11-16T04:21:17.851Z,52.31
2016-11-16T04:21:50.181Z,51.73
2016-11-16T04:22:22.518Z,51.16
2016-11-16T04:22:54.837Z,51.16
2016-11-16T04:23:27.163Z,52.12
2016-11-16T04:23:59.485Z,51.16
2016-11-16T04:24:31.801Z,52.02
2016-11-16T04:25:04.132Z,51.45
2016-11-16T04:25:36.460Z,52.12
2016-11-16T04:26:08.792Z,52.02
2016-11-16T04:26:41.133Z,51.25
2016-11-16T04:27:13.430Z,51.35
2016-11-16T04:27:45.748Z,52.22
2016-11-16T04:28:18.068Z,51.25
2016-11-16T04:28:50.393Z,51.25
2016-11-16T04:29:22.716Z,51.25
2016-11-16T04:29:55.027Z,51.45
2016-11-16T04:30:27.330Z,52.12
2016-11-16T04:30:59.638Z,52.12
2016-11-16T04:31:31.942Z,51.25
2016-11-16T04:32:04.242Z,51.25
2016-11-16T04:32:36.573Z,52.12
2016-11-16T04:33:08.883Z,51.45
2016-11-16T04:33:41.223Z,51.25
2016-11-16T04:34:13.538Z,51.45
2016-11-16T04:34:45.847Z,51.45
2016-11-16T04:35:18.170Z,52.22
2016-11-16T04:35:50.482Z,51.45
2016-11-16T04:36:22.801Z,52.12
2016-11-16T04:36:55.114Z,51.54
2016-11-16T04:37:27.439Z,51.35
2016-11-16T04:37:59.786Z,51.45
2016-11-16T04:38:32.087Z,51.45
2016-11-16T04:39:04.402Z,52.02
2016-11-16T04:39:36.712Z,51.45
2016-11-16T04:40:09.014Z,52.22
2016-11-16T04:40:41.342Z,51.25
2016-11-16T04:41:13.673Z,51.45
2016-11-16T04:41:45.986Z,51.45
2016-11-16T04:42:18.304Z,52.22
2016-11-16T04:42:50.625Z,52.12
2016-11-16T04:43:22.913Z,51.67
2016-11-16T04:43:55.236Z,52.02
2016-11-16T04:44:27.564Z,51.45
2016-11-16T04:44:59.892Z,52.02
2016-11-16T04:45:32.197Z,52.02
2016-11-16T04:46:04.523Z,52.12
2016-11-16T04:46:36.834Z,52.22
2016-11-16T04:47:09.166Z,51.45
2016-11-16T04:47:41.486Z,51.45
2016-11-16T04:48:13.803Z,52.02
2016-11-16T04:48:46.118Z,52.14
2016-11-16T04:49:18.446Z,52.05
2016-11-16T04:49:50.775Z,52.12
2016-11-16T04:50:23.076Z,51.57
2016-11-16T04:50:55.393Z,51.93
2016-11-16T04:51:27.730Z,52.12
2016-11-16T04:52:00.094Z,51.54
2016-11-16T04:52:32.405Z,52.02
2016-11-16T04:53:04.725Z,51.93
2016-11-16T04:53:37.058Z,51.54
2016-11-16T04:54:09.403Z,52.24
2016-11-16T04:54:41.722Z,51.45
2016-11-16T04:55:14.034Z,51.45
2016-11-16T04:55:46.367Z,51.54
2016-11-16T04:56:18.694Z,51.86
2016-11-16T04:56:51.022Z,51.67
2016-11-16T04:57:23.344Z,51.57
2016-11-16T04:57:55.656Z,51.93
2016-11-16T04:58:27.976Z,52.12
2016-11-16T04:59:00.291Z,51.57
2016-11-16T04:59:32.608Z,51.47
2016-11-16T05:00:04.948Z,52.05
2016-11-16T05:00:37.265Z,52.22
2016-11-16T05:01:09.592Z,51.93
2016-11-16T05:01:41.938Z,51.76
2016-11-16T05:02:14.231Z,51.93
2016-11-16T05:02:46.556Z,51.64
2016-11-16T05:03:18.872Z,51.95
2016-11-16T05:03:51.202Z,52.02
2016-11-16T05:04:23.563Z,52.02
2016-11-16T05:04:55.862Z,51.73
2016-11-16T05:05:28.174Z,52.12
2016-11-16T05:06:00.496Z,51.93
2016-11-16T05:06:32.822Z,51.93
2016-11-16T05:07:05.178Z,51.95
2016-11-16T05:07:37.494Z,51.83
2016-11-16T05:08:09.807Z,51.83
2016-11-16T05:08:42.231Z,52.02
2016-11-16T05:09:14.546Z,51.76
2016-11-16T05:09:46.863Z,51.95
2016-11-16T05:10:19.193Z,51.83
2016-11-16T05:10:51.516Z,51.83
2016-11-16T05:11:23.857Z,51.95
2016-11-16T05:11:56.194Z,51.93
2016-11-16T05:12:28.509Z,51.95
2016-11-16T05:13:00.809Z,52.05
2016-11-16T05:13:33.125Z,51.95
2016-11-16T05:14:05.436Z,52.02
2016-11-16T05:14:37.777Z,51.93
2016-11-16T05:15:10.098Z,51.86
2016-11-16T05:15:42.416Z,51.73
2016-11-16T05:16:14.734Z,51.93
2016-11-16T05:16:47.040Z,51.86
2016-11-16T05:17:19.367Z,51.95
2016-11-16T05:17:51.695Z,51.86
2016-11-16T05:18:24.015Z,51.95
2016-11-16T05:18:56.337Z,52.02
2016-11-16T05:19:28.665Z,52.12
2016-11-16T05:20:01.000Z,51.83
2016-11-16T05:20:33.293Z,51.93
2016-11-16T05:21:05.605Z,51.93
2016-11-16T05:21:37.932Z,52.12
2016-11-16T05:22:10.244Z,51.86
2016-11-16T05:22:42.571Z,52.05
2016-11-16T05:23:14.888Z,51.93
2016-11-16T05:23:47.199Z,52.12
2016-11-16T05:24:19.548Z,51.93
2016-11-16T05:24:51.882Z,51.93
2016-11-16T05:25:24.205Z,52.14
2016-11-16T05:25:56.530Z,51.83
2016-11-16T05:26:28.858Z,51.93
2016-11-16T05:27:01.194Z,51.83
2016-11-16T05:27:33.524Z,51.93
2016-11-16T05:28:05.839Z,51.93
2016-11-16T05:28:38.144Z,51.95
2016-11-16T05:29:10.442Z,51.95
2016-11-16T05:29:42.777Z,51.83
2016-11-16T05:30:15.100Z,51.95
2016-11-16T05:30:47.445Z,51.93
2016-11-16T05:31:19.778Z,51.83
2016-11-16T05:31:52.114Z,51.83
2016-11-16T05:32:24.449Z,51.93
2016-11-16T05:32:56.773Z,51.93
2016-11-16T05:33:29.096Z,51.83
2016-11-16T05:34:01.417Z,51.83
2016-11-16T05:34:33.742Z,51.95
2016-11-16T05:35:06.072Z,52.02
2016-11-16T05:35:38.410Z,52.02
2016-11-16T05:36:10.729Z,51.86
2016-11-16T05:36:43.039Z,52.31
2016-11-16T05:37:15.362Z,51.86
2016-11-16T05:37:47.672Z,51.93
2016-11-16T05:38:19.986Z,51.83
2016-11-16T05:38:52.319Z,52.31
2016-11-16T05:39:24.652Z,52.34
2016-11-16T05:39:56.964Z,52.43
2016-11-16T05:40:29.318Z,52.31
2016-11-16T05:41:01.655Z,51.83
2016-11-16T05:41:33.976Z,52.31
2016-11-16T05:42:06.306Z,52.31
2016-11-16T05:42:38.641Z,51.83
2016-11-16T05:43:10.978Z,52.22
2016-11-16T05:43:43.299Z,51.73
2016-11-16T05:44:15.614Z,51.83
2016-11-16T05:44:47.941Z,52.34
2016-11-16T05:45:20.260Z,51.73
2016-11-16T05:45:52.588Z,51.73
2016-11-16T05:46:24.913Z,51.73
2016-11-16T05:46:57.229Z,51.93
2016-11-16T05:47:29.550Z,51.93
2016-11-16T05:48:01.885Z,51.93
2016-11-16T05:48:34.181Z,51.83
2016-11-16T05:49:06.504Z,51.83
2016-11-16T05:49:38.843Z,52.31
2016-11-16T05:50:11.174Z,51.73
2016-11-16T05:50:43.521Z,52.24
2016-11-16T05:51:15.836Z,51.73
2016-11-16T05:51:48.149Z,52.31
2016-11-16T05:52:20.479Z,52.02
2016-11-16T05:52:52.799Z,51.83
2016-11-16T05:53:25.121Z,51.83
2016-11-16T05:53:57.450Z,51.83
2016-11-16T05:54:29.778Z,51.93
2016-11-16T05:55:02.096Z,51.93
2016-11-16T05:55:34.415Z,52.02
2016-11-16T05:56:06.740Z,52.02
2016-11-16T05:56:39.054Z,52.12
2016-11-16T05:57:11.410Z,52.02
2016-11-16T05:57:43.722Z,52.4
2016-11-16T05:58:16.037Z,52.6
2016-11-16T05:58:48.356Z,52.4
2016-11-16T05:59:20.674Z,52.43
2016-11-16T05:59:53.001Z,52.02
2016-11-16T06:00:25.336Z,51.93
2016-11-16T06:00:57.672Z,51.93
2016-11-16T06:01:29.984Z,52.34
2016-11-16T06:02:02.356Z,51.93
2016-11-16T06:02:34.714Z,52.4
2016-11-16T06:03:07.030Z,52.4
2016-11-16T06:03:39.373Z,52.31
2016-11-16T06:04:11.718Z,52.31
2016-11-16T06:04:44.049Z,51.83
2016-11-16T06:05:16.371Z,52.4
2016-11-16T06:05:48.699Z,52.12
2016-11-16T06:06:21.011Z,52.5
2016-11-16T06:06:53.321Z,52.4
2016-11-16T06:07:25.647Z,52.12
2016-11-16T06:07:57.960Z,52.31
2016-11-16T06:08:30.279Z,52.12
2016-11-16T06:09:02.606Z,51.93
2016-11-16T06:09:34.941Z,52.4
2016-11-16T06:10:07.279Z,52.31
2016-11-16T06:10:39.618Z,51.83
2016-11-16T06:11:11.947Z,52.12
2016-11-16T06:11:45.041Z,52.02
2016-11-16T06:12:17.650Z,52.02
2016-11-16T06:12:49.972Z,52.5
2016-11-16T06:13:22.304Z,52.5
2016-11-16T06:13:54.645Z,52.02
2016-11-16T06:14:26.962Z,52.22
2016-11-16T06:14:59.259Z,52.12
2016-11-16T06:15:31.585Z,52.31
2016-11-16T06:16:03.907Z,52.31
2016-11-16T06:16:36.255Z,52.02
2016-11-16T06:17:08.605Z,52.02
2016-11-16T06:17:40.891Z,51.93
2016-11-16T06:18:13.211Z,51.93
2016-11-16T06:18:45.525Z,52.12
2016-11-16T06:19:17.850Z,51.93
2016-11-16T06:19:50.299Z,51.86
2016-11-16T06:20:42.044Z,52.02
2016-11-16T06:21:14.369Z,51.93
2016-11-16T06:21:46.753Z,51.93
2016-11-16T06:22:19.075Z,52.22
2016-11-16T06:22:51.402Z,52.02
2016-11-16T06:23:23.726Z,52.02
2016-11-16T06:23:56.034Z,52.02
2016-11-16T06:24:28.367Z,52.4
2016-11-16T06:25:00.673Z,51.86
2016-11-16T06:25:32.994Z,52.02
2016-11-16T06:26:05.324Z,52.02
2016-11-16T06:26:37.642Z,52.02
2016-11-16T06:27:09.964Z,52.12
2016-11-16T06:27:42.292Z,52.02
2016-11-16T06:28:14.631Z,52.22
2016-11-16T06:28:46.956Z,52.02
2016-11-16T06:29:19.285Z,52.12
2016-11-16T06:29:51.599Z,52.02
2016-11-16T06:30:23.920Z,52.4
2016-11-16T06:30:56.339Z,52.12
2016-11-16T06:31:28.699Z,52.5
2016-11-16T06:32:01.022Z,52.12
2016-11-16T06:32:34.586Z,52.31
2016-11-16T06:33:10.502Z,52.02
2016-11-16T06:33:48.516Z,52.31
2016-11-16T06:34:22.389Z,52.4
2016-11-16T06:34:56.981Z,52.22
2016-11-16T06:35:38.349Z,52.02
2016-11-16T06:36:14.684Z,52.12
2016-11-16T06:36:49.007Z,52.4
2016-11-16T06:37:21.539Z,52.31
2016-11-16T06:37:54.563Z,51.93
2016-11-16T06:38:28.854Z,52.22
2016-11-16T06:39:01.429Z,52.02
2016-11-16T06:39:34.001Z,52.31
2016-11-16T06:40:06.567Z,52.31
2016-11-16T06:40:39.151Z,52.02
2016-11-16T06:41:11.689Z,52.31
2016-11-16T06:41:44.252Z,52.02
2016-11-16T06:42:16.805Z,52.4
2016-11-16T06:42:49.335Z,52.05
2016-11-16T06:43:21.713Z,51.93
2016-11-16T06:43:54.054Z,52.02
2016-11-16T06:44:26.357Z,52.31
2016-11-16T06:44:58.664Z,52.05
2016-11-16T06:45:30.977Z,52.12
2016-11-16T06:46:03.969Z,52.12
2016-11-16T06:46:36.310Z,52.4
2016-11-16T06:47:09.483Z,51.93
2016-11-16T06:47:41.826Z,52.4
2016-11-16T06:48:14.137Z,52.4
2016-11-16T06:48:47.896Z,51.93
2016-11-16T06:49:20.219Z,52.22
2016-11-16T06:49:52.595Z,51.93
2016-11-16T06:50:25.045Z,52.53
2016-11-16T06:50:57.766Z,52.12
2016-11-16T06:51:30.160Z,52.22
2016-11-16T06:52:02.475Z,52.02
2016-11-16T06:52:34.814Z,52.02
2016-11-16T06:53:07.503Z,52.31
2016-11-16T06:53:39.821Z,52.02
2016-11-16T06:54:14.517Z,52.02
2016-11-16T06:54:54.685Z,52.22
2016-11-16T06:55:35.793Z,52.4
2016-11-16T06:56:16.795Z,52.12
2016-11-16T06:56:59.325Z,52.12
2016-11-16T06:57:38.343Z,52.31
2016-11-16T06:58:17.385Z,52.22
2016-11-16T06:58:52.836Z,51.93
2016-11-16T06:59:25.835Z,52.31
2016-11-16T06:59:58.162Z,52.12
2016-11-16T07:00:30.490Z,52.4